createdAt,value
2019-03-27T00:00:09.872Z,58.30
2019-03-27T00:02:38.732Z,58.50
2019-03-27T00:05:07.971Z,59.50
2019-03-27T00:07:36.948Z,61.90
2019-03-27T00:10:09.402Z,64.60
2019-03-27T00:12:38.761Z,64.60
2019-03-27T00:15:13.724Z,66.00
2019-03-27T00:17:42.487Z,66.30
2019-03-27T00:20:12.048Z,66.40
2019-03-27T00:22:40.928Z,67.00
2019-03-27T00:25:10.089Z,67.20
2019-03-27T00:27:39.007Z,67.30
2019-03-27T00:30:09.343Z,67.70
2019-03-27T00:32:38.182Z,67.90
2019-03-27T00:35:16.085Z,68.90
2019-03-27T00:37:44.874Z,69.90
2019-03-27T00:40:13.843Z,70.40
2019-03-27T00:42:42.733Z,70.90
2019-03-27T00:45:25.359Z,71.50
2019-03-27T00:47:42.875Z,72.70
2019-03-27T00:50:14.773Z,72.60
2019-03-27T00:52:58.243Z,73.60
2019-03-27T00:55:25.914Z,74.30
2019-03-27T00:57:54.753Z,74.70
2019-03-27T01:00:29.452Z,74.40
2019-03-27T01:02:58.454Z,74.60
2019-03-27T01:05:27.323Z,74.80
2019-03-27T01:07:56.181Z,74.60
2019-03-27T01:10:25.105Z,74.50
2019-03-27T01:12:53.952Z,74.60
2019-03-27T01:15:22.822Z,75.90
2019-03-27T01:17:51.710Z,75.70
2019-03-27T01:20:20.547Z,76.20
2019-03-27T01:22:49.411Z,76.60
2019-03-27T01:25:18.326Z,77.00
2019-03-27T01:27:47.175Z,77.40
2019-03-27T01:30:16.131Z,77.70
2019-03-27T01:32:45.043Z,77.70
2019-03-27T01:35:13.906Z,78.00
2019-03-27T01:37:42.751Z,78.00
2019-03-27T01:40:11.851Z,78.20
2019-03-27T01:42:40.704Z,78.40
2019-03-27T01:45:09.653Z,78.60
2019-03-27T01:47:38.567Z,79.00
2019-03-27T01:50:08.313Z,79.80
2019-03-27T01:52:37.168Z,80.50
2019-03-27T01:55:07.642Z,80.40
2019-03-27T01:57:36.479Z,80.50
2019-03-27T02:00:07.484Z,80.10
2019-03-27T02:02:36.383Z,80.00
2019-03-27T02:05:06.833Z,79.80
2019-03-27T02:07:35.709Z,79.50
2019-03-27T02:10:07.657Z,79.40
2019-03-27T02:12:36.520Z,80.00
2019-03-27T02:15:08.841Z,80.00
2019-03-27T02:17:37.744Z,79.90
2019-03-27T02:20:08.343Z,80.40
2019-03-27T02:22:37.201Z,80.80
2019-03-27T02:25:06.594Z,80.90
2019-03-27T02:27:35.448Z,81.40
2019-03-27T02:30:06.375Z,82.10
2019-03-27T02:32:35.286Z,82.20
2019-03-27T02:35:04.747Z,82.10
2019-03-27T02:37:33.612Z,82.10
2019-03-27T02:40:02.526Z,82.30
2019-03-27T02:42:31.367Z,82.40
2019-03-27T02:45:00.494Z,82.50
2019-03-27T02:47:29.498Z,82.80
2019-03-27T02:49:58.361Z,83.20
2019-03-27T02:52:27.213Z,83.10
2019-03-27T02:54:56.142Z,83.20
2019-03-27T02:57:25.003Z,83.40
2019-03-27T02:59:53.863Z,83.40
2019-03-27T03:02:22.747Z,83.20
2019-03-27T03:04:51.626Z,83.20
2019-03-27T03:07:20.467Z,83.30
2019-03-27T03:09:50.744Z,83.20
2019-03-27T03:12:19.608Z,83.40
2019-03-27T03:14:48.441Z,83.30
2019-03-27T03:17:17.610Z,83.30
2019-03-27T03:19:46.445Z,83.40
2019-03-27T03:22:15.298Z,83.50
2019-03-27T03:24:44.214Z,83.70
2019-03-27T03:27:16.289Z,83.80
2019-03-27T03:29:47.815Z,83.90
2019-03-27T03:32:19.657Z,84.00
2019-03-27T03:34:48.706Z,83.90
2019-03-27T03:37:17.817Z,83.60
2019-03-27T03:39:46.660Z,83.80
2019-03-27T03:42:15.513Z,84.40
2019-03-27T03:44:44.394Z,84.80
2019-03-27T03:47:13.263Z,84.90
2019-03-27T03:49:42.113Z,84.90
2019-03-27T03:52:10.996Z,84.90
2019-03-27T03:54:40.064Z,85.20
2019-03-27T03:57:09.618Z,85.10
2019-03-27T03:59:40.238Z,84.70
2019-03-27T04:02:09.102Z,85.00
2019-03-27T04:04:38.348Z,85.20
2019-03-27T04:07:07.479Z,85.20
2019-03-27T04:09:36.342Z,85.00
2019-03-27T04:12:05.190Z,85.40
2019-03-27T04:14:34.104Z,85.20
2019-03-27T04:17:16.140Z,85.40
2019-03-27T04:19:33.449Z,85.60
2019-03-27T04:22:02.373Z,85.80
2019-03-27T04:24:31.250Z,85.90
2019-03-27T04:27:00.214Z,86.20
2019-03-27T04:29:29.114Z,86.30
2019-03-27T04:31:57.972Z,86.20
2019-03-27T04:34:26.829Z,86.20
2019-03-27T04:36:55.772Z,86.00
2019-03-27T04:39:24.673Z,86.00
2019-03-27T04:41:53.560Z,86.10
2019-03-27T04:44:22.462Z,86.10
2019-03-27T04:46:51.362Z,86.10
2019-03-27T04:49:20.218Z,86.10
2019-03-27T04:51:49.107Z,86.00
2019-03-27T04:54:18.154Z,85.90
2019-03-27T04:56:47.025Z,85.80
2019-03-27T04:59:15.930Z,85.70
2019-03-27T05:01:44.794Z,85.50
2019-03-27T05:04:13.741Z,85.40
2019-03-27T05:06:42.654Z,85.20
2019-03-27T05:09:11.501Z,85.00
2019-03-27T05:11:40.347Z,85.10
2019-03-27T05:14:09.267Z,84.70
2019-03-27T05:16:38.114Z,84.50
2019-03-27T05:19:06.976Z,84.60
2019-03-27T05:21:35.910Z,84.80
2019-03-27T05:24:04.748Z,85.00
2019-03-27T05:26:33.597Z,84.50
2019-03-27T05:29:02.730Z,84.40
2019-03-27T05:31:31.557Z,84.00
2019-03-27T05:34:00.414Z,84.60
2019-03-27T05:36:29.312Z,83.70
2019-03-27T05:38:58.101Z,83.80
2019-03-27T05:41:26.905Z,83.80
2019-03-27T05:43:55.802Z,83.40
2019-03-27T05:46:26.556Z,83.00
2019-03-27T05:48:55.108Z,82.70
2019-03-27T05:51:23.998Z,82.30
2019-03-27T05:53:52.853Z,81.80
2019-03-27T05:56:21.701Z,81.20
2019-03-27T05:58:50.587Z,80.80
2019-03-27T06:01:19.444Z,80.60
2019-03-27T06:03:48.299Z,80.40
2019-03-27T06:06:17.156Z,80.20
2019-03-27T06:08:45.969Z,80.00
2019-03-27T06:11:14.856Z,80.10
2019-03-27T06:13:43.768Z,79.90
2019-03-27T06:16:13.441Z,79.20
2019-03-27T06:18:42.244Z,78.30
2019-03-27T06:21:11.132Z,77.70
2019-03-27T06:23:40.102Z,77.30
2019-03-27T06:26:08.932Z,77.00
2019-03-27T06:28:37.818Z,76.40
2019-03-27T06:31:06.674Z,76.10
2019-03-27T06:33:35.622Z,75.30
2019-03-27T06:36:04.666Z,74.60
2019-03-27T06:38:33.534Z,74.60
2019-03-27T06:41:02.339Z,74.80
2019-03-27T06:43:31.272Z,74.40
2019-03-27T06:46:00.114Z,73.10
2019-03-27T06:48:28.959Z,72.60
2019-03-27T06:50:57.837Z,72.30
2019-03-27T06:53:26.670Z,71.70
2019-03-27T06:55:55.527Z,70.70
2019-03-27T06:58:24.436Z,67.90
2019-03-27T07:00:53.298Z,60.00
2019-03-27T07:03:22.168Z,50.20
2019-03-27T07:05:51.487Z,45.20
2019-03-27T07:08:20.345Z,42.20
2019-03-27T07:10:49.217Z,39.40
2019-03-27T07:13:18.116Z,37.50
2019-03-27T07:15:46.969Z,35.50
2019-03-27T07:18:15.844Z,35.00
2019-03-27T07:20:44.776Z,34.40
2019-03-27T07:23:13.644Z,33.80
2019-03-27T07:25:42.502Z,33.10
2019-03-27T07:28:11.398Z,32.50
2019-03-27T07:30:40.236Z,31.70
2019-03-27T07:33:09.099Z,31.20
2019-03-27T07:35:38.000Z,31.00
2019-03-27T07:38:06.863Z,30.70
2019-03-27T07:40:35.710Z,30.90
2019-03-27T07:43:04.723Z,30.50
2019-03-27T07:45:33.559Z,30.50
2019-03-27T07:48:02.409Z,30.30
2019-03-27T07:50:31.307Z,30.40
2019-03-27T07:53:00.288Z,31.10
2019-03-27T07:55:29.133Z,31.10
2019-03-27T07:57:58.017Z,30.80
2019-03-27T08:00:26.968Z,30.40
2019-03-27T08:02:55.821Z,30.10
2019-03-27T08:05:24.725Z,30.00
2019-03-27T08:07:53.598Z,30.20
2019-03-27T08:10:22.444Z,29.90
2019-03-27T08:12:51.370Z,29.20
2019-03-27T08:15:20.212Z,29.70
2019-03-27T08:17:49.054Z,30.00
2019-03-27T08:20:19.403Z,32.30
2019-03-27T08:22:48.256Z,33.10
2019-03-27T08:25:17.225Z,35.00
2019-03-27T08:27:46.153Z,37.30
2019-03-27T08:30:15.899Z,39.40
2019-03-27T08:32:44.757Z,39.40
2019-03-27T08:35:13.648Z,40.40
2019-03-27T08:37:42.486Z,39.90
2019-03-27T08:40:12.242Z,39.80
2019-03-27T08:42:41.158Z,39.80
2019-03-27T08:45:10.593Z,36.20
2019-03-27T08:47:39.469Z,33.50
2019-03-27T08:50:09.911Z,34.70
2019-03-27T08:52:38.755Z,36.70
2019-03-27T08:55:08.300Z,37.40
2019-03-27T08:57:38.721Z,36.20
2019-03-27T09:00:09.676Z,34.80
2019-03-27T09:02:38.623Z,35.90
2019-03-27T09:05:08.501Z,37.00
2019-03-27T09:07:37.331Z,37.00
2019-03-27T09:10:07.258Z,35.50
2019-03-27T09:12:36.550Z,34.50
2019-03-27T09:15:08.314Z,32.50
2019-03-27T09:17:37.344Z,30.00
2019-03-27T09:20:07.554Z,28.40
2019-03-27T09:22:37.301Z,28.20
2019-03-27T09:25:07.627Z,28.80
2019-03-27T09:27:36.559Z,28.70
2019-03-27T09:30:08.347Z,28.60
2019-03-27T09:32:37.214Z,28.00
2019-03-27T09:35:06.562Z,27.40
2019-03-27T09:37:35.410Z,27.20
2019-03-27T09:40:05.464Z,29.60
2019-03-27T09:42:34.386Z,31.40
2019-03-27T09:45:03.333Z,33.30
2019-03-27T09:47:34.679Z,32.90
2019-03-27T09:50:03.172Z,31.00
2019-03-27T09:52:32.007Z,29.70
2019-03-27T09:55:00.861Z,29.40
2019-03-27T09:57:29.750Z,29.60
2019-03-27T09:59:58.597Z,29.90
2019-03-27T10:02:27.448Z,30.10
2019-03-27T10:04:56.525Z,33.20
2019-03-27T10:07:25.450Z,36.00
2019-03-27T10:09:54.303Z,37.70
2019-03-27T10:12:23.220Z,38.30
2019-03-27T10:14:52.068Z,40.40
2019-03-27T10:17:21.017Z,40.90
2019-03-27T10:20:02.812Z,40.40
2019-03-27T10:22:20.421Z,38.40
2019-03-27T10:24:50.109Z,38.70
2019-03-27T10:27:18.994Z,39.10
2019-03-27T10:29:47.845Z,39.50
2019-03-27T10:32:16.701Z,39.70
2019-03-27T10:34:45.571Z,39.90
2019-03-27T10:37:33.739Z,39.00
2019-03-27T10:40:02.655Z,37.00
2019-03-27T10:42:31.484Z,36.00
2019-03-27T10:45:00.403Z,35.80
2019-03-27T10:47:29.334Z,36.30
2019-03-27T10:49:58.180Z,37.40
2019-03-27T10:52:27.021Z,38.40
2019-03-27T10:54:55.932Z,39.30
2019-03-27T10:57:24.779Z,40.20
2019-03-27T10:59:53.594Z,40.50
2019-03-27T11:02:22.453Z,40.80
2019-03-27T11:04:51.319Z,40.50
2019-03-27T11:07:20.167Z,39.50
2019-03-27T11:09:49.056Z,39.40
2019-03-27T11:12:17.900Z,38.50
2019-03-27T11:14:46.758Z,38.90
2019-03-27T11:17:15.673Z,39.10
2019-03-27T11:19:44.523Z,38.60
2019-03-27T11:22:13.369Z,38.30
2019-03-27T11:24:42.271Z,38.80
2019-03-27T11:27:11.128Z,39.60
2019-03-27T11:29:39.963Z,40.60
2019-03-27T11:32:08.847Z,40.80
2019-03-27T11:34:37.680Z,41.50
2019-03-27T11:37:06.534Z,42.10
2019-03-27T11:39:35.484Z,41.80
2019-03-27T11:42:04.343Z,41.90
2019-03-27T11:44:33.185Z,40.90
2019-03-27T11:47:02.095Z,40.10
2019-03-27T11:49:30.933Z,39.90
2019-03-27T11:51:59.784Z,39.80
2019-03-27T11:54:28.694Z,40.10
2019-03-27T11:56:57.550Z,41.50
2019-03-27T11:59:26.392Z,41.50
2019-03-27T12:01:55.479Z,42.60
2019-03-27T12:04:24.317Z,43.60
2019-03-27T12:06:53.173Z,43.90
2019-03-27T12:09:22.075Z,44.30
2019-03-27T12:11:50.920Z,44.50
2019-03-27T12:14:19.766Z,43.90
2019-03-27T12:16:50.114Z,42.50
2019-03-27T12:19:19.125Z,42.50
2019-03-27T12:21:47.936Z,41.50
2019-03-27T12:24:16.838Z,41.20
2019-03-27T12:26:45.700Z,41.50
2019-03-27T12:29:17.954Z,40.90
2019-03-27T12:31:45.664Z,40.80
2019-03-27T12:34:14.506Z,40.90
2019-03-27T12:36:43.378Z,42.30
2019-03-27T12:39:12.284Z,42.40
2019-03-27T12:41:41.132Z,41.90
2019-03-27T12:44:09.987Z,40.50
2019-03-27T12:46:38.911Z,41.50
2019-03-27T12:49:07.768Z,42.40
2019-03-27T12:51:36.614Z,43.50
2019-03-27T12:54:05.655Z,44.50
2019-03-27T12:56:34.605Z,44.80
2019-03-27T12:59:03.686Z,44.60
2019-03-27T13:01:32.602Z,44.40
2019-03-27T13:04:01.841Z,44.40
2019-03-27T13:06:30.794Z,44.30
2019-03-27T13:08:59.802Z,44.70
2019-03-27T13:11:28.653Z,44.20
2019-03-27T13:13:57.516Z,44.30
2019-03-27T13:16:26.422Z,44.90
2019-03-27T13:18:55.254Z,45.00
2019-03-27T13:21:26.747Z,44.80
2019-03-27T13:23:54.778Z,44.50
2019-03-27T13:26:24.099Z,44.40
2019-03-27T13:28:53.083Z,44.30
2019-03-27T13:31:22.539Z,43.60
2019-03-27T13:33:51.386Z,44.20
2019-03-27T13:36:20.239Z,45.00
2019-03-27T13:38:49.123Z,45.00
2019-03-27T13:41:18.016Z,45.10
2019-03-27T13:43:47.181Z,45.20
2019-03-27T13:46:16.152Z,45.10
2019-03-27T13:48:45.007Z,46.10
2019-03-27T13:51:15.047Z,46.60
2019-03-27T13:53:43.955Z,48.20
2019-03-27T13:56:12.831Z,47.20
2019-03-27T13:58:41.800Z,46.60
2019-03-27T14:01:12.982Z,46.50
2019-03-27T14:03:41.150Z,47.80
2019-03-27T14:06:10.049Z,46.40
2019-03-27T14:08:38.900Z,47.50
2019-03-27T14:11:07.741Z,46.10
2019-03-27T14:13:36.647Z,46.30
2019-03-27T14:16:06.197Z,46.20
2019-03-27T14:18:35.047Z,45.50
2019-03-27T14:21:03.963Z,45.50
2019-03-27T14:23:32.818Z,45.90
2019-03-27T14:26:01.678Z,45.70
2019-03-27T14:28:30.585Z,45.70
2019-03-27T14:30:59.724Z,45.70
2019-03-27T14:33:28.593Z,47.10
2019-03-27T14:35:57.529Z,45.40
2019-03-27T14:38:27.195Z,44.90
2019-03-27T14:40:56.056Z,44.40
2019-03-27T14:43:27.048Z,44.40
2019-03-27T14:45:55.460Z,45.90
2019-03-27T14:48:24.274Z,44.90
2019-03-27T14:50:53.213Z,44.60
2019-03-27T14:53:22.075Z,44.80
2019-03-27T14:55:50.925Z,45.00
2019-03-27T14:58:19.910Z,44.30
2019-03-27T15:00:48.771Z,44.00
2019-03-27T15:03:17.607Z,44.30
2019-03-27T15:05:46.705Z,44.80
2019-03-27T15:08:15.567Z,44.50
2019-03-27T15:10:44.430Z,44.50
2019-03-27T15:13:15.268Z,45.30
2019-03-27T15:15:43.840Z,47.60
2019-03-27T15:18:12.707Z,44.70
2019-03-27T15:20:41.625Z,44.60
2019-03-27T15:23:10.486Z,45.40
2019-03-27T15:25:39.341Z,45.00
2019-03-27T15:28:08.246Z,44.90
2019-03-27T15:30:37.110Z,45.60
2019-03-27T15:33:05.944Z,46.60
2019-03-27T15:35:34.840Z,46.20
2019-03-27T15:38:03.711Z,46.30
2019-03-27T15:40:40.994Z,46.30
2019-03-27T15:43:09.849Z,46.20
2019-03-27T15:45:38.704Z,46.40
2019-03-27T15:48:07.590Z,47.00
2019-03-27T15:50:36.454Z,47.10
2019-03-27T15:53:05.307Z,47.20
2019-03-27T15:55:34.324Z,47.30
2019-03-27T15:58:03.191Z,47.00
2019-03-27T16:00:32.028Z,46.60
2019-03-27T16:03:00.969Z,46.70
2019-03-27T16:05:29.830Z,47.20
2019-03-27T16:07:58.693Z,47.70
2019-03-27T16:10:29.177Z,47.30
2019-03-27T16:12:58.052Z,47.80
2019-03-27T16:15:26.900Z,47.80
2019-03-27T16:17:55.813Z,47.60
2019-03-27T16:20:24.661Z,48.00
2019-03-27T16:22:53.523Z,48.10
2019-03-27T16:25:22.457Z,48.50
2019-03-27T16:27:51.332Z,48.70
2019-03-27T16:30:20.184Z,49.00
2019-03-27T16:32:49.087Z,49.40
2019-03-27T16:35:17.931Z,50.00
2019-03-27T16:37:46.811Z,50.00
2019-03-27T16:40:18.392Z,50.30
2019-03-27T16:42:47.260Z,50.40
2019-03-27T16:45:16.215Z,50.50
2019-03-27T16:47:45.318Z,50.40
2019-03-27T16:50:14.370Z,50.70
2019-03-27T16:52:43.229Z,50.40
2019-03-27T16:55:12.105Z,51.00
2019-03-27T16:57:40.998Z,51.10
2019-03-27T17:00:10.525Z,51.20
2019-03-27T17:02:39.475Z,51.60
2019-03-27T17:05:08.316Z,52.00
2019-03-27T17:07:37.160Z,52.50
2019-03-27T17:10:10.099Z,52.20
2019-03-27T17:12:38.947Z,52.20
2019-03-27T17:15:08.003Z,52.50
2019-03-27T17:17:36.913Z,52.30
2019-03-27T17:20:25.081Z,52.80
2019-03-27T17:22:53.986Z,53.10
2019-03-27T17:25:22.841Z,52.50
2019-03-27T17:27:51.690Z,52.50
2019-03-27T17:30:21.295Z,52.90
2019-03-27T17:32:50.166Z,52.70
2019-03-27T17:35:19.035Z,53.10
2019-03-27T17:37:47.933Z,53.40
2019-03-27T17:40:17.765Z,53.60
2019-03-27T17:42:46.602Z,53.50
2019-03-27T17:45:15.506Z,53.40
2019-03-27T17:47:44.378Z,54.10
2019-03-27T17:50:14.041Z,54.30
2019-03-27T17:52:42.966Z,54.80
2019-03-27T17:55:11.930Z,54.90
2019-03-27T17:57:40.766Z,55.00
2019-03-27T18:00:13.259Z,55.60
2019-03-27T18:02:42.116Z,56.20
2019-03-27T18:05:11.344Z,55.70
2019-03-27T18:07:40.281Z,55.10
2019-03-27T18:10:09.426Z,54.70
2019-03-27T18:12:38.283Z,55.30
2019-03-27T18:15:08.405Z,55.70
2019-03-27T18:17:37.286Z,56.10
2019-03-27T18:20:06.514Z,56.40
2019-03-27T18:22:35.547Z,55.40
2019-03-27T18:25:05.898Z,55.20
2019-03-27T18:27:34.745Z,55.50
2019-03-27T18:30:04.861Z,56.20
2019-03-27T18:32:33.713Z,56.50
2019-03-27T18:35:02.546Z,57.10
2019-03-27T18:37:31.475Z,56.00
2019-03-27T18:40:00.484Z,57.00
2019-03-27T18:42:30.283Z,57.50
2019-03-27T18:44:59.183Z,57.00
2019-03-27T18:47:28.033Z,56.80
2019-03-27T18:49:59.831Z,57.30
2019-03-27T18:52:28.742Z,59.30
2019-03-27T18:54:57.589Z,59.20
2019-03-27T18:57:26.443Z,57.50
2019-03-27T18:59:55.370Z,57.30
2019-03-27T19:02:24.323Z,58.20
2019-03-27T19:04:53.180Z,58.80
2019-03-27T19:07:22.103Z,59.90
2019-03-27T19:09:50.969Z,59.20
2019-03-27T19:12:19.836Z,59.40
2019-03-27T19:14:48.720Z,60.10
2019-03-27T19:17:17.569Z,60.60
2019-03-27T19:19:46.419Z,60.40
2019-03-27T19:22:15.353Z,61.50
2019-03-27T19:24:44.212Z,61.90
2019-03-27T19:27:13.056Z,62.00
2019-03-27T19:29:44.891Z,62.60
2019-03-27T19:32:12.481Z,63.00
2019-03-27T19:34:41.344Z,63.40
2019-03-27T19:37:10.267Z,62.20
2019-03-27T19:39:39.125Z,61.80
2019-03-27T19:42:08.020Z,62.20
2019-03-27T19:44:37.820Z,60.50
2019-03-27T19:47:06.625Z,61.40
2019-03-27T19:49:35.469Z,61.70
2019-03-27T19:52:04.354Z,62.60
2019-03-27T19:54:33.218Z,62.60
2019-03-27T19:57:02.076Z,63.50
2019-03-27T19:59:30.994Z,63.60
2019-03-27T20:01:59.848Z,62.80
2019-03-27T20:04:28.702Z,63.40
2019-03-27T20:06:57.725Z,64.60
2019-03-27T20:09:26.563Z,64.70
2019-03-27T20:11:55.422Z,64.80
2019-03-27T20:14:24.340Z,64.10
2019-03-27T20:16:53.389Z,65.00
2019-03-27T20:19:22.250Z,64.30
2019-03-27T20:21:51.135Z,64.40
2019-03-27T20:24:20.017Z,64.70
2019-03-27T20:26:48.895Z,64.70
2019-03-27T20:29:17.881Z,64.30
2019-03-27T20:31:46.790Z,63.00
2019-03-27T20:34:15.656Z,62.80
2019-03-27T20:36:44.557Z,62.90
2019-03-27T20:39:13.417Z,64.20
2019-03-27T20:41:42.257Z,63.70
2019-03-27T20:44:11.161Z,63.70
2019-03-27T20:46:40.940Z,63.10
2019-03-27T20:49:09.814Z,63.10
2019-03-27T20:51:38.730Z,64.40
2019-03-27T20:54:07.598Z,64.00
2019-03-27T20:56:36.456Z,63.80
2019-03-27T20:59:05.375Z,64.00
2019-03-27T21:01:34.216Z,58.20
2019-03-27T21:04:03.498Z,56.80
2019-03-27T21:06:32.396Z,56.40
2019-03-27T21:09:01.234Z,56.70
2019-03-27T21:11:30.079Z,57.30
2019-03-27T21:13:59.012Z,60.30
2019-03-27T21:16:27.882Z,58.30
2019-03-27T21:18:56.731Z,59.00
2019-03-27T21:21:25.636Z,57.00
2019-03-27T21:23:54.487Z,57.40
2019-03-27T21:26:23.337Z,55.60
2019-03-27T21:28:52.242Z,55.00
2019-03-27T21:31:21.089Z,54.50
2019-03-27T21:33:49.968Z,54.10
2019-03-27T21:36:18.961Z,54.90
2019-03-27T21:38:47.833Z,54.30
2019-03-27T21:41:17.150Z,53.80
2019-03-27T21:43:46.050Z,53.50
2019-03-27T21:46:14.898Z,53.40
2019-03-27T21:48:43.764Z,53.40
2019-03-27T21:51:12.669Z,53.80
2019-03-27T21:53:41.529Z,53.30
2019-03-27T21:56:10.398Z,53.10
2019-03-27T21:58:39.378Z,53.30
2019-03-27T22:01:08.238Z,54.00
2019-03-27T22:03:37.098Z,53.80
2019-03-27T22:06:06.090Z,53.60
2019-03-27T22:08:34.944Z,53.60
2019-03-27T22:11:03.794Z,53.20
2019-03-27T22:13:32.720Z,53.40
2019-03-27T22:16:01.589Z,53.20
2019-03-27T22:18:30.436Z,53.50
2019-03-27T22:20:59.374Z,53.00
2019-03-27T22:23:28.247Z,53.40
2019-03-27T22:25:57.185Z,53.20
2019-03-27T22:28:26.071Z,53.70
2019-03-27T22:30:54.924Z,53.70
2019-03-27T22:33:23.782Z,53.90
2019-03-27T22:35:52.681Z,53.90
2019-03-27T22:38:21.547Z,53.80
2019-03-27T22:40:50.438Z,53.80
2019-03-27T22:43:19.356Z,54.50
2019-03-27T22:45:48.199Z,54.60
2019-03-27T22:48:17.061Z,55.00
2019-03-27T22:50:46.777Z,54.80
2019-03-27T22:53:15.621Z,54.50
2019-03-27T22:55:50.361Z,54.60
2019-03-27T22:58:15.050Z,54.00
2019-03-27T23:00:45.495Z,54.50
2019-03-27T23:03:18.429Z,54.50
2019-03-27T23:05:45.999Z,54.50
2019-03-27T23:08:14.925Z,54.80
2019-03-27T23:10:43.792Z,55.20
2019-03-27T23:13:12.677Z,57.70
2019-03-27T23:15:41.559Z,58.40
2019-03-27T23:18:10.404Z,58.70
2019-03-27T23:20:39.304Z,59.80
2019-03-27T23:23:08.170Z,59.50
2019-03-27T23:25:37.035Z,60.40
2019-03-27T23:28:05.991Z,62.10
2019-03-27T23:30:34.835Z,64.90
2019-03-27T23:33:03.738Z,65.30
2019-03-27T23:35:32.652Z,66.00
2019-03-27T23:38:01.490Z,64.70
2019-03-27T23:40:30.334Z,64.70
2019-03-27T23:42:59.440Z,65.00
2019-03-27T23:45:28.259Z,66.00
2019-03-27T23:47:57.104Z,67.00
2019-03-27T23:50:26.033Z,67.50
2019-03-27T23:52:54.890Z,68.40
2019-03-27T23:55:23.772Z,69.30
2019-03-27T23:57:52.653Z,68.80
